sensor_id;sensor_type;location;lat;lon;timestamp;temperature;humidity
14934;DHT22;7560;51.364;12.384;2024-01-15T00:01:46;2.50;99.90
14934;DHT22;7560;51.364;12.384;2024-01-15T00:06:49;2.40;99.90
14934;DHT22;7560;51.364;12.384;2024-01-15T00:11:51;2.40;99.90
14934;DHT22;7560;51.364;12.384;2024-01-15T00:16:52;2.50;99.90
14934;DHT22;7560;51.364;12.384;2024-01-15T00:21:56;2.40;99.90
14934;DHT22;7560;51.364;12.384;2024-01-15T00:26:58;2.40;99.90
14934;DHT22;7560;51.364;12.384;2024-01-15T00:32:00;2.40;99.90
14934;DHT22;7560;51.364;12.384;2024-01-15T00:37:02;2.30;99.90
14934;DHT22;7560;51.364;12.384;2024-01-15T00:42:04;2.30;99.90
14934;DHT22;7560;51.364;12.384;2024-01-15T00:47:06;2.30;99.90
14934;DHT22;7560;51.364;12.384;2024-01-15T00:52:08;2.30;99.90
14934;DHT22;7560;51.364;12.384;2024-01-15T00:57:10;2.30;99.90
14934;DHT22;7560;51.364;12.384;2024-01-15T01:02:11;2.30;99.90
14934;DHT22;7560;51.364;12.384;2024-01-15T01:07:13;2.30;99.90
14934;DHT22;7560;51.364;12.384;2024-01-15T01:12:15;2.30;99.90
14934;DHT22;7560;51.364;12.384;2024-01-15T01:17:17;2.30;99.90
14934;DHT22;7560;51.364;12.384;2024-01-15T01:22:19;2.30;99.90
14934;DHT22;7560;51.364;12.384;2024-01-15T01:27:21;2.30;99.90
14934;DHT22;7560;51.364;12.384;2024-01-15T01:32:23;2.30;99.90
14934;DHT22;7560;51.364;12.384;2024-01-15T01:37:25;2.30;99.90
14934;DHT22;7560;51.364;12.384;2024-01-15T01:42:26;2.40;99.90
14934;DHT22;7560;51.364;12.384;2024-01-15T01:47:28;2.40;99.90
14934;DHT22;7560;51.364;12.384;2024-01-15T01:52:31;2.40;99.90
14934;DHT22;7560;51.364;12.384;2024-01-15T01:57:34;2.30;99.90
14934;DHT22;7560;51.364;12.384;2024-01-15T02:02:36;2.20;99.90
14934;DHT22;7560;51.364;12.384;2024-01-15T02:07:38;2.00;99.90
14934;DHT22;7560;51.364;12.384;2024-01-15T02:12:40;2.00;99.90
14934;DHT22;7560;51.364;12.384;2024-01-15T02:18:02;1.90;99.90
14934;DHT22;7560;51.364;12.384;2024-01-15T02:23:14;2.00;99.90
14934;DHT22;7560;51.364;12.384;2024-01-15T02:28:17;2.00;99.90
14934;DHT22;7560;51.364;12.384;2024-01-15T02:33:19;2.00;99.90
14934;DHT22;7560;51.364;12.384;2024-01-15T02:38:21;2.00;99.90
14934;DHT22;7560;51.364;12.384;2024-01-15T02:43:23;2.00;99.90
14934;DHT22;7560;51.364;12.384;2024-01-15T02:48:25;2.00;99.90
14934;DHT22;7560;51.364;12.384;2024-01-15T02:53:27;2.00;99.90
14934;DHT22;7560;51.364;12.384;2024-01-15T02:58:28;2.00;99.90
14934;DHT22;7560;51.364;12.384;2024-01-15T03:03:30;1.90;99.90
14934;DHT22;7560;51.364;12.384;2024-01-15T03:08:34;2.00;99.90
14934;DHT22;7560;51.364;12.384;2024-01-15T03:13:36;2.00;99.90
14934;DHT22;7560;51.364;12.384;2024-01-15T03:18:39;1.90;99.90
14934;DHT22;7560;51.364;12.384;2024-01-15T03:23:41;1.80;99.90
14934;DHT22;7560;51.364;12.384;2024-01-15T03:28:43;1.80;99.90
14934;DHT22;7560;51.364;12.384;2024-01-15T03:33:44;1.70;99.90
14934;DHT22;7560;51.364;12.384;2024-01-15T03:38:47;1.50;99.90
14934;DHT22;7560;51.364;12.384;2024-01-15T03:43:49;1.40;99.90
14934;DHT22;7560;51.364;12.384;2024-01-15T03:48:50;1.30;99.90
14934;DHT22;7560;51.364;12.384;2024-01-15T03:53:53;1.30;99.90
14934;DHT22;7560;51.364;12.384;2024-01-15T03:58:54;1.20;99.90
14934;DHT22;7560;51.364;12.384;2024-01-15T04:03:56;1.20;99.90
14934;DHT22;7560;51.364;12.384;2024-01-15T04:08:59;1.20;99.90
14934;DHT22;7560;51.364;12.384;2024-01-15T04:14:00;1.30;99.90
14934;DHT22;7560;51.364;12.384;2024-01-15T04:19:02;1.50;99.90
14934;DHT22;7560;51.364;12.384;2024-01-15T04:24:04;1.60;99.90
14934;DHT22;7560;51.364;12.384;2024-01-15T04:29:06;1.70;99.90
14934;DHT22;7560;51.364;12.384;2024-01-15T04:34:08;1.60;99.90
14934;DHT22;7560;51.364;12.384;2024-01-15T04:39:10;1.50;99.90
14934;DHT22;7560;51.364;12.384;2024-01-15T04:44:13;1.40;99.90
14934;DHT22;7560;51.364;12.384;2024-01-15T04:49:15;1.40;99.90
14934;DHT22;7560;51.364;12.384;2024-01-15T04:54:17;1.40;99.90
14934;DHT22;7560;51.364;12.384;2024-01-15T04:59:20;1.50;99.90
14934;DHT22;7560;51.364;12.384;2024-01-15T05:04:21;1.60;99.90
14934;DHT22;7560;51.364;12.384;2024-01-15T05:09:23;1.70;99.90
14934;DHT22;7560;51.364;12.384;2024-01-15T05:14:25;1.70;99.90
14934;DHT22;7560;51.364;12.384;2024-01-15T05:19:27;1.80;99.90
14934;DHT22;7560;51.364;12.384;2024-01-15T05:24:29;1.80;99.90
14934;DHT22;7560;51.364;12.384;2024-01-15T05:29:31;1.90;99.90
14934;DHT22;7560;51.364;12.384;2024-01-15T05:34:32;1.90;99.90
14934;DHT22;7560;51.364;12.384;2024-01-15T05:39:35;1.80;99.90
14934;DHT22;7560;51.364;12.384;2024-01-15T05:44:37;1.70;99.90
14934;DHT22;7560;51.364;12.384;2024-01-15T05:49:38;1.80;99.90
14934;DHT22;7560;51.364;12.384;2024-01-15T05:54:40;1.80;99.90
14934;DHT22;7560;51.364;12.384;2024-01-15T05:59:44;1.90;99.90
14934;DHT22;7560;51.364;12.384;2024-01-15T06:04:45;1.90;99.90
14934;DHT22;7560;51.364;12.384;2024-01-15T06:09:47;1.90;99.90
14934;DHT22;7560;51.364;12.384;2024-01-15T06:14:50;1.90;99.90
14934;DHT22;7560;51.364;12.384;2024-01-15T06:19:51;1.90;99.90
14934;DHT22;7560;51.364;12.384;2024-01-15T06:24:53;1.90;99.90
14934;DHT22;7560;51.364;12.384;2024-01-15T06:29:55;1.90;99.90
14934;DHT22;7560;51.364;12.384;2024-01-15T06:34:57;1.90;99.90
14934;DHT22;7560;51.364;12.384;2024-01-15T06:39:59;1.90;99.90
14934;DHT22;7560;51.364;12.384;2024-01-15T06:45:01;1.90;99.90
14934;DHT22;7560;51.364;12.384;2024-01-15T06:50:03;1.90;99.90
14934;DHT22;7560;51.364;12.384;2024-01-15T06:55:08;2.00;99.90
14934;DHT22;7560;51.364;12.384;2024-01-15T07:00:10;1.90;99.90
14934;DHT22;7560;51.364;12.384;2024-01-15T07:05:12;2.00;99.90
14934;DHT22;7560;51.364;12.384;2024-01-15T07:10:14;2.00;99.90
14934;DHT22;7560;51.364;12.384;2024-01-15T07:15:16;1.90;99.90
14934;DHT22;7560;51.364;12.384;2024-01-15T07:20:18;2.00;99.90
14934;DHT22;7560;51.364;12.384;2024-01-15T07:25:21;2.00;99.90
14934;DHT22;7560;51.364;12.384;2024-01-15T07:30:23;2.00;99.90
14934;DHT22;7560;51.364;12.384;2024-01-15T07:35:25;2.00;99.90
14934;DHT22;7560;51.364;12.384;2024-01-15T07:40:27;2.00;99.90
14934;DHT22;7560;51.364;12.384;2024-01-15T07:45:29;1.90;99.90
14934;DHT22;7560;51.364;12.384;2024-01-15T07:50:31;1.80;99.90
14934;DHT22;7560;51.364;12.384;2024-01-15T07:55:33;1.80;99.90
14934;DHT22;7560;51.364;12.384;2024-01-15T08:00:35;1.70;99.90
14934;DHT22;7560;51.364;12.384;2024-01-15T08:05:37;1.80;99.90
14934;DHT22;7560;51.364;12.384;2024-01-15T08:10:38;2.00;99.90
14934;DHT22;7560;51.364;12.384;2024-01-15T08:15:41;2.10;99.90
14934;DHT22;7560;51.364;12.384;2024-01-15T08:20:43;2.20;99.90
14934;DHT22;7560;51.364;12.384;2024-01-15T08:25:45;2.20;99.90
14934;DHT22;7560;51.364;12.384;2024-01-15T08:30:47;2.10;99.90
14934;DHT22;7560;51.364;12.384;2024-01-15T08:35:49;2.40;99.90
14934;DHT22;7560;51.364;12.384;2024-01-15T08:40:50;2.50;99.90
14934;DHT22;7560;51.364;12.384;2024-01-15T08:45:54;2.40;99.90
14934;DHT22;7560;51.364;12.384;2024-01-15T08:50:57;2.40;99.90
14934;DHT22;7560;51.364;12.384;2024-01-15T08:55:58;2.40;99.90
14934;DHT22;7560;51.364;12.384;2024-01-15T09:01:00;2.40;99.90
14934;DHT22;7560;51.364;12.384;2024-01-15T09:06:03;2.70;99.90
14934;DHT22;7560;51.364;12.384;2024-01-15T09:11:05;2.80;99.90
14934;DHT22;7560;51.364;12.384;2024-01-15T09:16:06;2.90;99.90
14934;DHT22;7560;51.364;12.384;2024-01-15T09:21:09;2.90;99.90
14934;DHT22;7560;51.364;12.384;2024-01-15T09:26:10;2.80;99.90
14934;DHT22;7560;51.364;12.384;2024-01-15T09:31:12;2.90;99.90
14934;DHT22;7560;51.364;12.384;2024-01-15T09:36:14;2.80;99.90
14934;DHT22;7560;51.364;12.384;2024-01-15T09:41:16;2.80;99.90
14934;DHT22;7560;51.364;12.384;2024-01-15T09:46:18;2.70;99.90
14934;DHT22;7560;51.364;12.384;2024-01-15T09:51:20;2.70;99.90
14934;DHT22;7560;51.364;12.384;2024-01-15T09:56:23;2.90;99.90
14934;DHT22;7560;51.364;12.384;2024-01-15T10:01:25;3.10;99.90
14934;DHT22;7560;51.364;12.384;2024-01-15T10:06:28;3.10;99.90
14934;DHT22;7560;51.364;12.384;2024-01-15T10:11:30;3.20;99.90
14934;DHT22;7560;51.364;12.384;2024-01-15T10:16:32;3.10;99.90
14934;DHT22;7560;51.364;12.384;2024-01-15T10:21:35;3.20;99.90
14934;DHT22;7560;51.364;12.384;2024-01-15T10:26:37;3.00;99.90
14934;DHT22;7560;51.364;12.384;2024-01-15T10:31:39;3.10;99.90
14934;DHT22;7560;51.364;12.384;2024-01-15T10:36:41;3.30;99.90
14934;DHT22;7560;51.364;12.384;2024-01-15T10:41:43;3.30;99.90
14934;DHT22;7560;51.364;12.384;2024-01-15T10:46:46;3.40;99.90
14934;DHT22;7560;51.364;12.384;2024-01-15T10:51:49;3.30;99.90
14934;DHT22;7560;51.364;12.384;2024-01-15T10:56:51;3.20;99.90
14934;DHT22;7560;51.364;12.384;2024-01-15T11:01:53;3.20;99.90
14934;DHT22;7560;51.364;12.384;2024-01-15T11:06:56;3.20;99.90
14934;DHT22;7560;51.364;12.384;2024-01-15T11:12:12;3.30;99.90
14934;DHT22;7560;51.364;12.384;2024-01-15T11:17:15;3.40;99.90
14934;DHT22;7560;51.364;12.384;2024-01-15T11:27:41;3.50;99.90
14934;DHT22;7560;51.364;12.384;2024-01-15T11:32:46;3.40;99.90
14934;DHT22;7560;51.364;12.384;2024-01-15T11:42:54;3.30;99.90
14934;DHT22;7560;51.364;12.384;2024-01-15T11:48:15;3.50;99.90
14934;DHT22;7560;51.364;12.384;2024-01-15T11:58:30;3.50;99.90
14934;DHT22;7560;51.364;12.384;2024-01-15T12:03:32;3.60;99.90
14934;DHT22;7560;51.364;12.384;2024-01-15T12:08:35;3.80;99.90
14934;DHT22;7560;51.364;12.384;2024-01-15T12:13:37;3.90;99.90
14934;DHT22;7560;51.364;12.384;2024-01-15T12:18:38;4.00;99.90
14934;DHT22;7560;51.364;12.384;2024-01-15T12:23:40;4.10;99.90
14934;DHT22;7560;51.364;12.384;2024-01-15T12:28:42;3.90;99.90
14934;DHT22;7560;51.364;12.384;2024-01-15T12:33:44;3.90;99.90
14934;DHT22;7560;51.364;12.384;2024-01-15T12:38:46;3.90;99.90
14934;DHT22;7560;51.364;12.384;2024-01-15T12:43:48;4.10;99.90
14934;DHT22;7560;51.364;12.384;2024-01-15T12:48:51;4.10;99.90
14934;DHT22;7560;51.364;12.384;2024-01-15T12:53:53;4.00;99.90
14934;DHT22;7560;51.364;12.384;2024-01-15T12:58:55;4.00;99.90
14934;DHT22;7560;51.364;12.384;2024-01-15T13:03:56;4.00;99.90
14934;DHT22;7560;51.364;12.384;2024-01-15T13:08:58;4.10;99.90
14934;DHT22;7560;51.364;12.384;2024-01-15T13:14:00;4.00;99.90
14934;DHT22;7560;51.364;12.384;2024-01-15T13:19:02;3.90;99.90
14934;DHT22;7560;51.364;12.384;2024-01-15T13:24:06;3.80;99.90
14934;DHT22;7560;51.364;12.384;2024-01-15T13:29:07;3.70;99.90
14934;DHT22;7560;51.364;12.384;2024-01-15T13:34:09;3.70;99.90
14934;DHT22;7560;51.364;12.384;2024-01-15T13:39:11;3.70;99.90
14934;DHT22;7560;51.364;12.384;2024-01-15T13:44:13;3.50;99.90
14934;DHT22;7560;51.364;12.384;2024-01-15T13:49:15;3.50;99.90
14934;DHT22;7560;51.364;12.384;2024-01-15T13:54:17;3.50;99.90
14934;DHT22;7560;51.364;12.384;2024-01-15T13:59:18;3.40;99.90
14934;DHT22;7560;51.364;12.384;2024-01-15T14:04:20;3.60;99.90
14934;DHT22;7560;51.364;12.384;2024-01-15T14:09:22;3.60;99.90
14934;DHT22;7560;51.364;12.384;2024-01-15T14:14:24;3.60;99.90
14934;DHT22;7560;51.364;12.384;2024-01-15T14:19:26;3.70;99.90
14934;DHT22;7560;51.364;12.384;2024-01-15T14:24:28;3.60;99.90
14934;DHT22;7560;51.364;12.384;2024-01-15T14:29:30;3.60;99.90
14934;DHT22;7560;51.364;12.384;2024-01-15T14:34:32;3.50;99.90
14934;DHT22;7560;51.364;12.384;2024-01-15T14:39:34;3.60;99.90
14934;DHT22;7560;51.364;12.384;2024-01-15T14:44:36;3.50;99.90
14934;DHT22;7560;51.364;12.384;2024-01-15T14:49:39;3.40;99.90
14934;DHT22;7560;51.364;12.384;2024-01-15T14:54:42;3.40;99.90
14934;DHT22;7560;51.364;12.384;2024-01-15T14:59:43;3.40;99.90
14934;DHT22;7560;51.364;12.384;2024-01-15T15:04:46;3.30;99.90
14934;DHT22;7560;51.364;12.384;2024-01-15T15:09:50;3.30;99.90
14934;DHT22;7560;51.364;12.384;2024-01-15T15:14:52;3.30;99.90
14934;DHT22;7560;51.364;12.384;2024-01-15T15:20:08;3.30;99.90
14934;DHT22;7560;51.364;12.384;2024-01-15T15:25:11;3.20;99.90
14934;DHT22;7560;51.364;12.384;2024-01-15T15:30:14;3.20;99.90
14934;DHT22;7560;51.364;12.384;2024-01-15T15:35:16;3.20;99.90
14934;DHT22;7560;51.364;12.384;2024-01-15T15:40:18;3.20;99.90
14934;DHT22;7560;51.364;12.384;2024-01-15T15:45:20;3.10;99.90
14934;DHT22;7560;51.364;12.384;2024-01-15T15:50:22;3.10;99.90
14934;DHT22;7560;51.364;12.384;2024-01-15T15:55:24;3.10;99.90
14934;DHT22;7560;51.364;12.384;2024-01-15T16:00:26;3.10;99.90
14934;DHT22;7560;51.364;12.384;2024-01-15T16:05:30;3.00;99.90
14934;DHT22;7560;51.364;12.384;2024-01-15T16:10:46;3.00;99.90
14934;DHT22;7560;51.364;12.384;2024-01-15T16:15:50;3.00;99.90
14934;DHT22;7560;51.364;12.384;2024-01-15T16:21:12;3.00;99.90
14934;DHT22;7560;51.364;12.384;2024-01-15T16:26:34;2.90;99.90
14934;DHT22;7560;51.364;12.384;2024-01-15T16:31:38;3.00;99.90
14934;DHT22;7560;51.364;12.384;2024-01-15T16:36:49;3.00;99.90
14934;DHT22;7560;51.364;12.384;2024-01-15T16:41:50;3.00;99.90
14934;DHT22;7560;51.364;12.384;2024-01-15T16:46:52;3.00;99.90
14934;DHT22;7560;51.364;12.384;2024-01-15T16:51:57;3.00;99.90
14934;DHT22;7560;51.364;12.384;2024-01-15T16:56:59;2.90;99.90
14934;DHT22;7560;51.364;12.384;2024-01-15T17:02:00;2.90;99.90
14934;DHT22;7560;51.364;12.384;2024-01-15T17:07:03;2.90;99.90
14934;DHT22;7560;51.364;12.384;2024-01-15T17:12:05;2.90;99.90
14934;DHT22;7560;51.364;12.384;2024-01-15T17:17:07;3.00;99.90
14934;DHT22;7560;51.364;12.384;2024-01-15T17:22:08;2.90;99.90
14934;DHT22;7560;51.364;12.384;2024-01-15T17:27:11;2.90;99.90
14934;DHT22;7560;51.364;12.384;2024-01-15T17:32:13;2.80;99.90
14934;DHT22;7560;51.364;12.384;2024-01-15T17:37:15;2.80;99.90
14934;DHT22;7560;51.364;12.384;2024-01-15T17:42:17;2.80;99.90
14934;DHT22;7560;51.364;12.384;2024-01-15T17:47:21;2.80;99.90
14934;DHT22;7560;51.364;12.384;2024-01-15T17:52:23;2.80;99.90
14934;DHT22;7560;51.364;12.384;2024-01-15T17:57:26;2.80;99.90
14934;DHT22;7560;51.364;12.384;2024-01-15T18:02:28;2.90;99.90
14934;DHT22;7560;51.364;12.384;2024-01-15T18:07:29;2.80;99.90
14934;DHT22;7560;51.364;12.384;2024-01-15T18:12:31;2.80;99.90
14934;DHT22;7560;51.364;12.384;2024-01-15T18:17:33;2.70;99.90
14934;DHT22;7560;51.364;12.384;2024-01-15T18:22:36;2.60;99.90
14934;DHT22;7560;51.364;12.384;2024-01-15T18:27:38;2.70;99.90
14934;DHT22;7560;51.364;12.384;2024-01-15T18:32:40;2.70;99.90
14934;DHT22;7560;51.364;12.384;2024-01-15T18:37:44;2.70;99.90
14934;DHT22;7560;51.364;12.384;2024-01-15T18:42:47;2.70;99.90
14934;DHT22;7560;51.364;12.384;2024-01-15T18:47:49;2.80;99.90
14934;DHT22;7560;51.364;12.384;2024-01-15T18:52:51;2.80;99.90
14934;DHT22;7560;51.364;12.384;2024-01-15T18:57:54;2.90;99.90
14934;DHT22;7560;51.364;12.384;2024-01-15T19:03:01;2.90;99.90
14934;DHT22;7560;51.364;12.384;2024-01-15T19:08:03;2.90;99.90
14934;DHT22;7560;51.364;12.384;2024-01-15T19:13:05;2.90;99.90
14934;DHT22;7560;51.364;12.384;2024-01-15T19:18:08;2.90;99.90
14934;DHT22;7560;51.364;12.384;2024-01-15T19:23:10;2.70;99.90
14934;DHT22;7560;51.364;12.384;2024-01-15T19:28:12;2.50;99.90
14934;DHT22;7560;51.364;12.384;2024-01-15T19:33:15;2.40;99.90
14934;DHT22;7560;51.364;12.384;2024-01-15T19:38:17;2.40;99.90
14934;DHT22;7560;51.364;12.384;2024-01-15T19:43:19;2.40;99.90
14934;DHT22;7560;51.364;12.384;2024-01-15T19:48:30;2.50;99.90
14934;DHT22;7560;51.364;12.384;2024-01-15T19:53:32;2.60;99.90
14934;DHT22;7560;51.364;12.384;2024-01-15T19:58:35;2.20;99.90
14934;DHT22;7560;51.364;12.384;2024-01-15T20:03:38;2.10;99.90
14934;DHT22;7560;51.364;12.384;2024-01-15T20:08:45;2.00;99.90
14934;DHT22;7560;51.364;12.384;2024-01-15T20:13:48;2.10;99.90
14934;DHT22;7560;51.364;12.384;2024-01-15T20:18:50;2.20;99.90
14934;DHT22;7560;51.364;12.384;2024-01-15T20:23:55;2.10;99.90
14934;DHT22;7560;51.364;12.384;2024-01-15T20:29:05;2.10;99.90
14934;DHT22;7560;51.364;12.384;2024-01-15T20:34:07;2.10;99.90
14934;DHT22;7560;51.364;12.384;2024-01-15T20:39:09;2.10;99.90
14934;DHT22;7560;51.364;12.384;2024-01-15T20:44:11;1.90;99.90
14934;DHT22;7560;51.364;12.384;2024-01-15T20:49:13;2.10;99.90
14934;DHT22;7560;51.364;12.384;2024-01-15T20:54:16;2.20;99.90
14934;DHT22;7560;51.364;12.384;2024-01-15T20:59:17;2.20;99.90
14934;DHT22;7560;51.364;12.384;2024-01-15T21:04:19;2.30;99.90
14934;DHT22;7560;51.364;12.384;2024-01-15T21:09:23;2.40;99.90
14934;DHT22;7560;51.364;12.384;2024-01-15T21:14:25;2.40;99.90
14934;DHT22;7560;51.364;12.384;2024-01-15T21:19:27;2.40;99.90
14934;DHT22;7560;51.364;12.384;2024-01-15T21:24:29;2.40;99.90
14934;DHT22;7560;51.364;12.384;2024-01-15T21:29:30;2.50;99.90
14934;DHT22;7560;51.364;12.384;2024-01-15T21:34:32;2.50;99.90
14934;DHT22;7560;51.364;12.384;2024-01-15T21:39:34;2.40;99.90
14934;DHT22;7560;51.364;12.384;2024-01-15T21:44:36;2.40;99.90
14934;DHT22;7560;51.364;12.384;2024-01-15T21:49:38;2.50;99.90
14934;DHT22;7560;51.364;12.384;2024-01-15T21:54:40;2.50;99.90
14934;DHT22;7560;51.364;12.384;2024-01-15T21:59:42;2.50;99.90
14934;DHT22;7560;51.364;12.384;2024-01-15T22:04:44;2.60;99.90
14934;DHT22;7560;51.364;12.384;2024-01-15T22:09:46;2.60;99.90
14934;DHT22;7560;51.364;12.384;2024-01-15T22:14:47;2.60;99.90
14934;DHT22;7560;51.364;12.384;2024-01-15T22:19:49;2.60;99.90
14934;DHT22;7560;51.364;12.384;2024-01-15T22:24:51;2.60;99.90
14934;DHT22;7560;51.364;12.384;2024-01-15T22:29:53;2.70;99.90
14934;DHT22;7560;51.364;12.384;2024-01-15T22:34:55;2.60;99.90
14934;DHT22;7560;51.364;12.384;2024-01-15T22:39:57;2.60;99.90
14934;DHT22;7560;51.364;12.384;2024-01-15T22:45:00;2.60;99.90
14934;DHT22;7560;51.364;12.384;2024-01-15T22:50:02;2.70;99.90
14934;DHT22;7560;51.364;12.384;2024-01-15T22:55:05;2.70;99.90
14934;DHT22;7560;51.364;12.384;2024-01-15T23:00:07;2.70;99.90
14934;DHT22;7560;51.364;12.384;2024-01-15T23:05:20;2.70;99.90
14934;DHT22;7560;51.364;12.384;2024-01-15T23:10:22;2.70;99.90
14934;DHT22;7560;51.364;12.384;2024-01-15T23:15:24;2.80;99.90
14934;DHT22;7560;51.364;12.384;2024-01-15T23:20:26;2.80;99.90
14934;DHT22;7560;51.364;12.384;2024-01-15T23:25:28;2.80;99.90
14934;DHT22;7560;51.364;12.384;2024-01-15T23:30:29;2.80;99.90
14934;DHT22;7560;51.364;12.384;2024-01-15T23:35:33;2.70;99.90
14934;DHT22;7560;51.364;12.384;2024-01-15T23:40:35;2.60;99.90
14934;DHT22;7560;51.364;12.384;2024-01-15T23:45:39;2.50;99.90
14934;DHT22;7560;51.364;12.384;2024-01-15T23:50:42;2.50;99.90
14934;DHT22;7560;51.364;12.384;2024-01-15T23:55:44;2.50;99.90
